createdAt,value
2023-02-16T06:32:57.767Z,8.50
2023-02-16T06:35:28.214Z,9.30
2023-02-16T06:37:55.278Z,9.00
2023-02-16T06:40:24.938Z,8.50
2023-02-16T06:42:52.847Z,8.90
2023-02-16T06:45:22.163Z,8.70
2023-02-16T06:47:49.352Z,8.40
2023-02-16T06:50:17.399Z,9.70
2023-02-16T06:52:45.496Z,8.00
2023-02-16T06:55:12.546Z,8.60
2023-02-16T06:57:41.523Z,9.50
2023-02-16T07:00:10.187Z,10.60
2023-02-16T07:02:37.341Z,9.70
2023-02-16T07:05:05.285Z,10.50
2023-02-16T07:07:33.338Z,9.40
2023-02-16T07:10:03.551Z,8.20
2023-02-16T07:12:32.197Z,9.80
2023-02-16T07:15:09.820Z,8.20
2023-02-16T07:17:40.898Z,8.30
2023-02-16T07:20:09.025Z,9.50
2023-02-16T07:22:35.995Z,8.90
2023-02-16T07:25:03.833Z,10.40
2023-02-16T07:27:30.999Z,12.20
2023-02-16T07:30:00.171Z,12.90
2023-02-16T07:32:29.605Z,9.80
2023-02-16T07:37:56.934Z,9.70
2023-02-16T07:40:30.238Z,11.30
2023-02-16T07:43:12.619Z,11.90
2023-02-16T07:45:53.624Z,11.40
2023-02-16T07:48:24.776Z,10.40
2023-02-16T07:50:53.728Z,11.60
2023-02-16T07:53:22.210Z,11.20
2023-02-16T07:55:52.275Z,13.20
2023-02-16T07:58:30.491Z,10.80
2023-02-16T08:01:10.258Z,9.60
2023-02-16T08:03:40.448Z,11.50
2023-02-16T08:06:09.720Z,36.70
2023-02-16T08:08:37.811Z,22.70
2023-02-16T08:11:19.093Z,10.80
2023-02-16T08:13:47.827Z,11.20
2023-02-16T08:16:40.860Z,10.50
2023-02-16T08:19:13.063Z,9.90
2023-02-16T08:21:47.982Z,9.90
2023-02-16T08:24:16.846Z,10.70
2023-02-16T08:26:49.311Z,11.80
2023-02-16T08:29:19.573Z,11.10
2023-02-16T08:31:49.681Z,10.50
2023-02-16T08:34:18.960Z,10.40
2023-02-16T08:36:58.417Z,12.00
2023-02-16T08:39:27.745Z,14.10
2023-02-16T08:41:55.016Z,13.20
2023-02-16T08:44:23.164Z,10.60
2023-02-16T08:46:57.253Z,11.20
2023-02-16T08:52:01.934Z,9.90
2023-02-16T08:54:30.305Z,12.70
2023-02-16T08:57:04.591Z,13.50
2023-02-16T08:59:33.171Z,10.90
2023-02-16T09:02:11.793Z,12.20
2023-02-16T09:04:39.160Z,11.90
2023-02-16T09:07:07.800Z,13.10
2023-02-16T09:09:35.474Z,10.70
2023-02-16T09:12:07.430Z,12.40
2023-02-16T09:14:38.634Z,12.50
2023-02-16T09:17:06.115Z,12.30
2023-02-16T09:19:36.229Z,13.10
2023-02-16T09:22:18.185Z,13.60
2023-02-16T09:24:50.285Z,11.80
2023-02-16T09:27:17.660Z,15.10
2023-02-16T09:29:58.801Z,13.20
2023-02-16T09:32:30.357Z,12.80
2023-02-16T09:35:04.172Z,13.20
2023-02-16T09:37:32.789Z,13.60
2023-02-16T09:40:31.791Z,14.30
2023-02-16T09:43:10.027Z,12.00
2023-02-16T09:45:44.195Z,14.50
2023-02-16T09:48:30.032Z,13.50
2023-02-16T09:51:01.651Z,10.60
2023-02-16T09:53:42.432Z,14.40
2023-02-16T09:56:30.196Z,13.20
2023-02-16T09:59:10.790Z,11.20
2023-02-16T10:01:51.627Z,12.90
2023-02-16T10:05:00.444Z,12.60
2023-02-16T10:07:54.346Z,12.20
2023-02-16T10:10:23.583Z,11.90
2023-02-16T10:13:11.365Z,11.50
2023-02-16T10:15:43.550Z,10.90
2023-02-16T10:18:36.255Z,11.60
2023-02-16T10:21:07.252Z,10.50
2023-02-16T10:23:45.368Z,13.30
2023-02-16T10:26:41.782Z,9.70
2023-02-16T10:29:13.703Z,12.40
2023-02-16T10:31:44.084Z,11.40
2023-02-16T10:34:14.170Z,12.00
2023-02-16T10:37:53.341Z,11.20
2023-02-16T10:41:08.870Z,11.10
2023-02-16T10:43:55.212Z,11.40
2023-02-16T10:46:25.238Z,13.30
2023-02-16T10:51:27.606Z,11.30
2023-02-16T10:54:01.795Z,11.60
2023-02-16T10:56:46.133Z,10.50
2023-02-16T10:59:20.820Z,10.60
2023-02-16T11:02:02.335Z,11.70
2023-02-16T11:07:12.154Z,10.10
2023-02-16T11:09:56.751Z,12.00
2023-02-16T11:12:26.532Z,9.40
2023-02-16T11:15:19.618Z,10.00
2023-02-16T11:18:08.043Z,9.50
2023-02-16T11:20:47.801Z,9.60
2023-02-16T11:23:25.483Z,8.90
2023-02-16T11:26:05.800Z,10.80
2023-02-16T11:28:48.634Z,8.70
2023-02-16T11:31:54.540Z,8.90
2023-02-16T11:34:45.379Z,7.90
2023-02-16T11:37:31.809Z,8.70
2023-02-16T11:40:26.209Z,9.40
2023-02-16T11:42:56.980Z,9.30
2023-02-16T11:45:34.947Z,11.30
2023-02-16T11:48:14.146Z,9.80
2023-02-16T11:51:02.577Z,9.50
2023-02-16T11:53:34.780Z,9.70
2023-02-16T11:56:23.573Z,10.90
2023-02-16T11:59:17.706Z,10.10
2023-02-16T12:02:17.547Z,10.50
2023-02-16T12:05:29.074Z,10.10
2023-02-16T12:08:15.706Z,8.40
2023-02-16T12:11:31.843Z,8.80
2023-02-16T12:14:51.767Z,9.70
2023-02-16T12:18:01.452Z,9.80
2023-02-16T12:20:51.871Z,10.00
2023-02-16T12:23:47.976Z,8.30
2023-02-16T12:26:49.457Z,10.60
2023-02-16T12:29:35.749Z,9.30
2023-02-16T12:32:24.252Z,7.20
2023-02-16T12:35:09.134Z,9.40
2023-02-16T12:37:52.047Z,7.90
2023-02-16T12:40:49.112Z,8.10
2023-02-16T12:43:44.953Z,8.50
2023-02-16T12:46:40.071Z,8.20
2023-02-16T12:49:13.325Z,7.60
2023-02-16T12:52:22.863Z,9.40
2023-02-16T12:55:01.614Z,8.90
2023-02-16T12:57:33.138Z,8.40
2023-02-16T13:00:32.105Z,8.30
2023-02-16T13:03:29.051Z,10.30
2023-02-16T13:06:19.080Z,9.90
2023-02-16T13:09:24.322Z,9.50
2023-02-16T13:11:51.781Z,8.90
2023-02-16T13:14:25.900Z,9.70
2023-02-16T13:17:05.154Z,9.60
2023-02-16T13:23:01.598Z,7.30
2023-02-16T13:26:00.068Z,7.40
2023-02-16T13:28:47.404Z,9.70
2023-02-16T13:31:23.110Z,6.90
2023-02-16T13:34:07.461Z,7.30
2023-02-16T13:37:11.729Z,7.80
2023-02-16T13:40:16.397Z,7.30
2023-02-16T13:43:13.526Z,9.50
2023-02-16T13:45:42.312Z,7.90
2023-02-16T13:48:27.780Z,9.40
2023-02-16T13:51:01.164Z,8.60
2023-02-16T13:53:39.580Z,9.10
2023-02-16T13:56:35.746Z,9.50
2023-02-16T13:59:18.248Z,9.90
2023-02-16T14:01:47.149Z,8.90
2023-02-16T14:04:23.521Z,7.60
2023-02-16T14:07:46.755Z,8.00
2023-02-16T14:10:19.461Z,6.30
2023-02-16T14:13:13.421Z,6.60
2023-02-16T14:15:51.638Z,6.60
2023-02-16T14:18:32.329Z,7.30
2023-02-16T14:21:03.189Z,7.30
2023-02-16T14:23:34.761Z,7.20
2023-02-16T14:26:09.627Z,6.30
2023-02-16T14:28:59.482Z,7.00
2023-02-16T14:31:29.745Z,7.00
2023-02-16T14:34:05.164Z,7.10
2023-02-16T14:36:33.053Z,7.50
2023-02-16T14:39:02.886Z,7.70
2023-02-16T14:41:34.276Z,7.80
2023-02-16T14:44:24.885Z,7.80
2023-02-16T14:47:13.911Z,12.70
2023-02-16T14:50:03.050Z,11.10
2023-02-16T14:52:41.341Z,12.00
2023-02-16T14:55:22.958Z,11.00
2023-02-16T14:58:31.336Z,8.70
2023-02-16T15:01:09.744Z,9.20
2023-02-16T15:03:41.330Z,8.80
2023-02-16T15:06:17.511Z,7.20
2023-02-16T15:09:04.862Z,7.50
2023-02-16T15:12:21.337Z,8.50
2023-02-16T15:14:59.741Z,8.00
2023-02-16T15:20:46.540Z,7.90
2023-02-16T15:23:20.324Z,8.70
2023-02-16T15:25:58.784Z,8.30
2023-02-16T15:28:30.246Z,7.30
2023-02-16T15:31:00.812Z,7.60
2023-02-16T15:33:37.170Z,8.30
2023-02-16T15:36:15.255Z,8.40
2023-02-16T15:38:54.895Z,9.50
2023-02-16T15:41:31.120Z,14.50
2023-02-16T15:43:58.755Z,14.70
2023-02-16T15:46:29.699Z,18.60
2023-02-16T15:48:56.956Z,14.10
2023-02-16T15:51:32.527Z,12.10
2023-02-16T15:54:24.142Z,10.20
2023-02-16T15:56:58.469Z,9.20
2023-02-16T15:59:32.019Z,9.60
2023-02-16T16:02:08.487Z,9.00
2023-02-16T16:04:39.577Z,8.90
2023-02-16T16:07:11.680Z,10.00
2023-02-16T16:09:39.802Z,8.70
2023-02-16T16:12:15.941Z,9.00
2023-02-16T16:14:56.457Z,9.60
2023-02-16T16:17:38.137Z,8.60
2023-02-16T16:20:25.407Z,9.40
2023-02-16T16:23:18.806Z,10.30
2023-02-16T16:25:50.335Z,9.60
2023-02-16T16:28:27.297Z,11.70
2023-02-16T16:31:16.712Z,15.80
2023-02-16T16:34:09.699Z,16.10
2023-02-16T16:36:47.455Z,12.20
2023-02-16T16:39:17.169Z,13.50
2023-02-16T16:42:07.427Z,13.90
2023-02-16T16:44:54.322Z,11.90
2023-02-16T16:47:30.920Z,11.40
2023-02-16T16:50:24.076Z,10.20
2023-02-16T16:52:54.542Z,10.20
2023-02-16T16:55:35.135Z,10.80
2023-02-16T16:58:09.718Z,14.60
2023-02-16T17:00:39.372Z,15.40
2023-02-16T17:03:09.141Z,12.20
2023-02-16T17:05:37.816Z,13.20
2023-02-16T17:08:05.873Z,12.50
2023-02-16T17:13:06.863Z,9.10
2023-02-16T17:15:41.631Z,12.80
2023-02-16T17:18:18.029Z,12.50
2023-02-16T17:20:46.228Z,11.90
2023-02-16T17:23:52.605Z,12.70
2023-02-16T17:26:40.648Z,14.30
2023-02-16T17:29:12.098Z,13.60
2023-02-16T17:31:52.009Z,12.60
2023-02-16T17:34:31.454Z,14.10
2023-02-16T17:37:19.653Z,15.00
2023-02-16T17:40:01.102Z,14.30
2023-02-16T17:42:28.438Z,17.10
2023-02-16T17:45:00.323Z,22.80
2023-02-16T17:47:30.298Z,18.80
2023-02-16T17:49:58.858Z,19.80
2023-02-16T17:55:07.735Z,20.10
2023-02-16T17:57:41.812Z,24.80
2023-02-16T18:00:17.445Z,24.20
2023-02-16T18:02:48.674Z,19.90
2023-02-16T18:05:18.603Z,18.60
2023-02-16T18:07:48.464Z,19.70
2023-02-16T18:14:39.325Z,25.80
2023-02-16T18:17:10.040Z,21.60
2023-02-16T18:19:40.600Z,17.70
2023-02-16T18:22:10.668Z,20.30
2023-02-16T18:24:42.679Z,20.50
2023-02-16T18:27:11.793Z,18.10
2023-02-16T18:29:42.452Z,15.80
2023-02-16T18:32:13.514Z,17.70
2023-02-16T18:34:42.109Z,31.20
2023-02-16T18:37:09.089Z,31.50
2023-02-16T18:39:42.675Z,25.70
2023-02-16T18:42:10.816Z,20.40
2023-02-16T18:44:53.194Z,18.40
2023-02-16T18:47:53.222Z,17.90
2023-02-16T18:50:22.727Z,17.50
2023-02-16T18:52:53.396Z,17.20
2023-02-16T18:55:32.331Z,17.70
2023-02-16T18:58:28.803Z,18.50
2023-02-16T19:00:59.062Z,18.00
2023-02-16T19:03:39.373Z,20.90
2023-02-16T19:06:08.858Z,18.70
2023-02-16T19:08:37.595Z,17.40
2023-02-16T19:11:06.579Z,17.90
2023-02-16T19:13:41.484Z,18.90
2023-02-16T19:16:11.453Z,17.80
2023-02-16T19:18:39.316Z,20.10
2023-02-16T19:21:08.413Z,20.00
2023-02-16T19:23:42.864Z,19.70
2023-02-16T19:26:12.136Z,19.50
2023-02-16T19:28:40.286Z,21.70
2023-02-16T19:31:15.098Z,18.90
2023-02-16T19:33:47.218Z,19.30
2023-02-16T19:36:14.266Z,17.40
2023-02-16T19:38:44.923Z,17.60
2023-02-16T19:41:28.053Z,16.20
2023-02-16T19:43:56.738Z,16.80
2023-02-16T19:46:24.397Z,16.30
2023-02-16T19:48:56.946Z,17.90
2023-02-16T19:51:25.042Z,16.60
2023-02-16T19:53:55.580Z,16.80
2023-02-16T19:56:24.383Z,16.30
2023-02-16T19:58:51.788Z,14.60
2023-02-16T20:01:23.654Z,16.20
2023-02-16T20:03:52.081Z,16.60
2023-02-16T20:06:29.686Z,13.90
2023-02-16T20:09:01.518Z,13.90
2023-02-16T20:11:32.128Z,14.10
2023-02-16T20:13:59.794Z,15.40
2023-02-16T20:16:27.685Z,13.10
2023-02-16T20:18:56.423Z,14.40
2023-02-16T20:21:29.527Z,14.40
2023-02-16T20:24:00.591Z,14.40
2023-02-16T20:26:29.665Z,16.10
2023-02-16T20:28:57.689Z,14.40
2023-02-16T20:31:38.980Z,16.90
2023-02-16T20:34:06.883Z,13.00
2023-02-16T20:36:34.993Z,15.40
2023-02-16T20:39:05.328Z,19.40
2023-02-16T20:41:32.663Z,16.60
2023-02-16T20:44:03.558Z,14.70
2023-02-16T20:46:31.267Z,16.30
2023-02-16T20:49:00.446Z,15.80
2023-02-16T20:51:28.051Z,18.30
2023-02-16T20:53:55.386Z,15.60
2023-02-16T20:56:23.540Z,18.10
2023-02-16T20:58:57.509Z,16.20
2023-02-16T21:01:30.208Z,15.40
2023-02-16T21:03:57.985Z,15.80
2023-02-16T21:06:29.331Z,13.20
2023-02-16T21:08:58.045Z,13.60
2023-02-16T21:11:26.870Z,13.50
2023-02-16T21:13:57.486Z,15.20
2023-02-16T21:16:27.122Z,14.70
2023-02-16T21:18:55.811Z,15.60
2023-02-16T21:21:23.944Z,14.70
2023-02-16T21:23:54.729Z,16.10
2023-02-16T21:26:24.396Z,16.00
2023-02-16T21:28:51.600Z,14.40
2023-02-16T21:31:21.302Z,13.00
2023-02-16T21:33:51.223Z,15.30
2023-02-16T21:36:21.008Z,14.30
2023-02-16T21:38:51.666Z,13.70
2023-02-16T21:41:27.310Z,13.50
2023-02-16T21:44:09.020Z,14.20
2023-02-16T21:46:40.255Z,13.10
2023-02-16T21:49:18.876Z,14.40
2023-02-16T21:51:48.122Z,16.10
2023-02-16T21:54:43.947Z,21.90
2023-02-16T21:57:11.243Z,18.60
2023-02-16T21:59:38.486Z,21.40
2023-02-16T22:02:09.557Z,27.30
2023-02-16T22:04:39.180Z,15.40
2023-02-16T22:07:10.563Z,16.80
2023-02-16T22:09:45.979Z,17.80
2023-02-16T22:12:18.198Z,16.80
2023-02-16T22:14:46.299Z,17.10
2023-02-16T22:17:13.989Z,19.30
2023-02-16T22:19:42.411Z,20.60
2023-02-16T22:22:13.052Z,20.50
2023-02-16T22:27:09.313Z,18.40
2023-02-16T22:29:37.575Z,17.50
2023-02-16T22:32:05.062Z,18.30
2023-02-16T22:34:34.820Z,12.40
2023-02-16T22:37:01.890Z,13.20
2023-02-16T22:39:36.097Z,15.90
2023-02-16T22:42:03.933Z,13.90
2023-02-16T22:44:33.355Z,14.60
2023-02-16T22:47:00.930Z,14.40
2023-02-16T22:49:31.216Z,13.80
2023-02-16T22:51:58.832Z,12.70
2023-02-16T22:54:33.247Z,15.50
2023-02-16T22:57:02.276Z,13.50
2023-02-16T22:59:30.092Z,14.80
2023-02-16T23:01:57.636Z,12.70
2023-02-16T23:04:24.654Z,11.70
2023-02-16T23:06:51.937Z,12.20
2023-02-16T23:09:24.114Z,15.00
2023-02-16T23:11:52.381Z,14.50
2023-02-16T23:14:20.221Z,16.60
2023-02-16T23:16:50.172Z,16.10
2023-02-16T23:19:20.263Z,13.90
2023-02-16T23:21:49.700Z,16.20
2023-02-16T23:24:18.516Z,14.10
2023-02-16T23:26:46.073Z,16.50
2023-02-16T23:29:18.232Z,13.50
2023-02-16T23:31:47.746Z,14.10
2023-02-16T23:34:14.879Z,15.50
2023-02-16T23:36:44.657Z,14.70
2023-02-16T23:39:16.696Z,15.60
2023-02-16T23:41:44.764Z,13.50
2023-02-16T23:44:12.852Z,13.60
2023-02-16T23:46:39.832Z,14.60
2023-02-16T23:49:06.884Z,13.50
2023-02-16T23:51:35.241Z,12.30
2023-02-16T23:54:02.651Z,11.90
2023-02-16T23:56:38.175Z,11.90
2023-02-16T23:59:06.022Z,10.80
